Nevada, Ohio
Current Conditions -  °F | °C
As of 12:53 AM on Tuesday 21 Oct 2014 (Local Time) from KMNN Reporting Station
Haze Haze  
Wind Chill: 47°   Ceiling: Unl
Heat Index: 49°   Visibility: 2.5mi
Dew Point: 47°   Wind: 5mph
Humidity: 93%   Direction: 260°W
Pressure: 29.87"   Gusts: NA
Location:  40.82°N, 83.13°W
Report Text: KMNN 210453Z AUTO 26004KT 2 1/2SM BR CLR 09/08 A2987 RMK AO2 SLP117 T00940083 401500078 TSNO
Loading
Personal Weather Stations






























Interactive Weather Map
Tropical Storm Tracking
New forecast layout! Learn more

10-Day Weather Forecast

Advertisements
Track Severe Weather on mobile